Time;durP1;ratioP1;P1;durP2;ratioP2;P2;SDS_P1;SDS_P2;PMS_P1;PMS_P2;Temp;Humidity;BMP_temperature;BMP_pressure;BME280_temperature;BME280_humidity;BME280_pressure;Samples;Min_cycle;Max_cycle;Signal;HPM_P1;HPM_P2
2022/09/24 00:00:58;;;;;;;2.20;1.90;;;;;;;8.87;77.75;94869.47;5086888;28;20207;-60
2022/09/24 00:03:24;;;;;;;1.73;1.57;;;;;;;9.01;75.81;94913.16;5068422;28;20200;-62
2022/09/24 00:05:51;;;;;;;3.60;2.30;;;;;;;8.82;78.30;94861.41;5086689;28;20191;-62
2022/09/24 00:08:18;;;;;;;1.90;1.70;;;;;;;8.82;77.75;94862.22;5068513;28;20208;-61
2022/09/24 00:10:45;;;;;;;1.97;1.80;;;;;;;8.84;76.85;94895.06;5072897;28;20267;-61
2022/09/24 00:13:15;;;;;;;1.80;1.70;;;;;;;8.81;76.79;94897.81;5073504;28;20184;-60
2022/09/24 00:15:47;;;;;;;2.57;1.80;;;;;;;8.80;75.98;94906.34;5073087;28;20226;-62
2022/09/24 00:18:14;;;;;;;2.00;1.77;;;;;;;8.82;76.63;94891.81;5055066;28;20197;-59
2022/09/24 00:20:40;;;;;;;1.93;1.60;;;;;;;9.07;75.74;94906.84;5073046;28;20212;-60
2022/09/24 00:23:08;;;;;;;3.73;1.57;;;;;;;9.17;75.06;94917.91;5055079;28;20254;-62
2022/09/24 00:28:23;;;;;;;3.30;1.53;;;;;;;9.14;74.93;94915.59;5072621;28;20239;-60
2022/09/24 00:30:51;;;;;;;1.40;1.30;;;;;;;8.96;75.05;94914.44;5054817;28;20180;-62
2022/09/24 00:33:16;;;;;;;4.17;2.00;;;;;;;8.87;76.50;94890.56;5072705;28;20666;-61
2022/09/24 00:35:42;;;;;;;1.80;1.60;;;;;;;9.09;76.65;94890.56;5072883;28;20196;-62
2022/09/24 00:38:07;;;;;;;1.93;1.70;;;;;;;9.15;75.24;94914.69;5072950;28;20662;-58
2022/09/24 00:40:37;;;;;;;2.77;2.00;;;;;;;9.02;76.40;94883.53;5054736;28;20253;-61
2022/09/24 00:43:21;;;;;;;2.70;1.53;;;;;;;9.07;77.20;94871.34;5073000;28;20609;-58
2022/09/24 00:45:47;;;;;;;1.87;1.70;;;;;;;8.93;77.20;94872.34;5072748;28;20189;-59
2022/09/24 00:48:12;;;;;;;2.50;2.30;;;;;;;8.94;77.19;94871.44;5054914;28;20270;-59
2022/09/24 00:50:38;;;;;;;1.73;1.63;;;;;;;8.99;77.37;94869.38;5072697;28;20204;-61
2022/09/24 00:53:15;;;;;;;3.60;2.07;;;;;;;8.83;77.31;94875.69;5072930;28;20503;-61
2022/09/24 00:55:44;;;;;;;3.13;1.73;;;;;;;8.79;76.99;94862.44;5054402;28;20219;-62
2022/09/24 00:58:10;;;;;;;2.37;1.90;;;;;;;8.74;77.79;94846.78;5072665;28;20267;-61
2022/09/24 01:00:37;;;;;;;2.00;1.80;;;;;;;8.84;77.90;94859.56;5053831;28;20700;-61
2022/09/24 01:03:09;;;;;;;2.33;2.13;;;;;;;8.65;77.57;94854.25;5072504;28;20235;-61
2022/09/24 01:05:36;;;;;;;2.50;2.13;;;;;;;8.60;78.02;94830.97;5054196;28;20236;-60
2022/09/24 01:08:03;;;;;;;6.27;2.43;;;;;;;8.73;77.48;94854.47;5072506;28;20219;-59
2022/09/24 01:10:50;;;;;;;2.40;1.80;;;;;;;8.68;76.83;94869.22;5054233;28;20205;-61
2022/09/24 01:13:28;;;;;;;3.77;1.87;;;;;;;8.52;77.69;94838.34;5053786;28;20648;-61
2022/09/24 01:16:21;;;;;;;2.17;1.97;;;;;;;8.46;78.91;94812.53;5072208;28;20196;-60
2022/09/24 01:18:56;;;;;;;2.63;1.57;;;;;;;8.59;79.22;94809.09;5033555;28;20418;-60
2022/09/24 01:21:35;;;;;;;2.97;1.93;;;;;;;8.60;80.14;94811.53;5071127;28;20188;-61
2022/09/24 01:24:24;;;;;;;2.30;2.10;;;;;;;8.95;76.99;94857.03;5072282;28;20222;-61
2022/09/24 01:27:02;;;;;;;2.20;2.00;;;;;;;8.85;76.53;94864.53;5071958;28;20181;-60
2022/09/24 01:29:36;;;;;;;2.17;1.97;;;;;;;8.94;77.23;94850.34;5072183;28;20316;-62
2022/09/24 01:32:33;;;;;;;2.40;1.77;;;;;;;8.78;78.42;94820.28;5071956;28;20208;-61
2022/09/24 01:35:06;;;;;;;2.27;1.77;;;;;;;8.76;78.63;94837.34;5053781;28;20219;-61
2022/09/24 01:37:34;;;;;;;2.67;2.47;;;;;;;8.70;78.35;94819.25;5071993;28;20189;-62
2022/09/24 01:40:01;;;;;;;2.40;1.93;;;;;;;8.61;79.51;94809.78;5071952;28;20204;-60
2022/09/24 01:42:29;;;;;;;2.50;2.30;;;;;;;8.70;78.92;94831.91;5071844;28;20223;-62
2022/09/24 01:44:56;;;;;;;2.60;2.40;;;;;;;8.53;80.37;94795.16;5071816;28;20204;-60
2022/09/24 01:47:31;;;;;;;2.17;1.87;;;;;;;8.59;79.76;94793.88;5071553;28;20270;-61
2022/09/24 01:49:56;;;;;;;3.23;2.17;;;;;;;8.50;80.60;94794.59;5071998;28;20204;-61
2022/09/24 01:52:29;;;;;;;3.30;2.10;;;;;;;8.53;79.55;94817.13;5053581;28;20192;-63
2022/09/24 01:54:56;;;;;;;2.83;2.53;;;;;;;8.34;80.08;94798.22;5071447;28;20606;-62
2022/09/24 01:57:26;;;;;;;2.63;2.40;;;;;;;8.27;81.70;94776.00;5071772;28;20192;-61
2022/09/24 02:00:08;;;;;;;3.37;2.47;;;;;;;8.32;82.02;94777.28;5071496;28;20266;-60
2022/09/24 02:02:52;;;;;;;2.37;2.17;;;;;;;8.38;81.87;94773.50;5070300;28;20211;-62
2022/09/24 02:05:49;;;;;;;2.73;2.40;;;;;;;8.23;84.32;94741.69;5070976;28;20215;-60
2022/09/24 02:08:21;;;;;;;3.23;2.93;;;;;;;8.40;82.67;94771.66;5048654;28;20735;-60
2022/09/24 02:10:50;;;;;;;2.87;2.67;;;;;;;8.44;83.09;94768.78;5053456;28;20283;-61
2022/09/24 02:13:23;;;;;;;3.20;2.83;;;;;;;8.58;83.10;94784.69;5071311;28;20647;-61
2022/09/24 02:15:51;;;;;;;6.10;2.90;;;;;;;8.62;83.05;94788.59;5070577;28;20181;-59
2022/09/24 02:18:20;;;;;;;3.00;2.17;;;;;;;8.83;82.48;94812.31;5071561;28;20276;-61
2022/09/24 02:20:46;;;;;;;3.77;2.83;;;;;;;8.75;82.68;94796.88;5053340;28;20194;-62
2022/09/24 02:23:16;;;;;;;3.27;2.67;;;;;;;8.98;82.02;94826.38;5071435;28;20196;-61
2022/09/24 02:25:49;;;;;;;6.03;3.07;;;;;;;8.87;82.33;94814.50;5071267;28;20591;-62
2022/09/24 02:28:16;;;;;;;3.47;2.90;;;;;;;8.78;82.84;94807.63;5071543;28;20703;-62
2022/09/24 02:30:47;;;;;;;3.63;3.30;;;;;;;8.61;82.86;94804.72;5071122;28;20181;-61
2022/09/24 02:35:59;;;;;;;2.63;2.43;;;;;;;8.91;81.77;94843.78;5071409;28;20210;-62
2022/09/24 02:38:24;;;;;;;3.93;3.03;;;;;;;8.70;81.87;94836.97;5071267;28;20645;-62
2022/09/24 02:40:50;;;;;;;5.43;2.77;;;;;;;8.53;83.63;94799.41;5052945;28;20189;-61
2022/09/24 02:43:15;;;;;;;3.40;2.70;;;;;;;8.59;83.52;94814.16;5071265;28;20192;-60
2022/09/24 02:45:41;;;;;;;4.97;3.40;;;;;;;8.72;82.43;94825.00;5052847;28;20211;-60
2022/09/24 02:48:06;;;;;;;3.80;2.60;;;;;;;8.83;81.02;94863.00;5070927;28;20289;-59
2022/09/24 02:50:38;;;;;;;4.73;2.80;;;;;;;8.73;79.84;94879.81;5052875;28;20219;-62
2022/09/24 02:53:04;;;;;;;2.87;2.67;;;;;;;8.57;81.08;94854.00;5070909;28;20208;-61
2022/09/24 02:55:29;;;;;;;3.03;2.77;;;;;;;8.55;82.70;94825.44;5071014;28;20639;-61
2022/09/24 02:57:55;;;;;;;3.27;2.50;;;;;;;8.48;82.38;94838.56;5070753;28;20650;-60
2022/09/24 03:00:20;;;;;;;3.63;2.90;;;;;;;8.57;82.09;94862.41;5069457;28;20209;-62
2022/09/24 03:02:49;;;;;;;2.37;2.17;;;;;;;8.45;82.43;94837.97;5070569;28;20276;-62
2022/09/24 03:05:17;;;;;;;2.27;2.03;;;;;;;8.44;82.82;94837.16;5070665;28;20287;-62
2022/09/24 03:07:43;;;;;;;2.90;2.60;;;;;;;8.51;82.85;94839.25;5070668;28;20231;-60
2022/09/24 03:10:15;;;;;;;4.20;2.43;;;;;;;8.70;81.57;94854.72;5070571;28;20209;-62
2022/09/24 03:12:42;;;;;;;2.93;2.60;;;;;;;8.63;81.66;94856.09;5052832;28;20211;-62
2022/09/24 03:15:09;;;;;;;3.47;2.90;;;;;;;8.60;81.72;94846.19;5052516;28;20203;-62
2022/09/24 03:17:34;;;;;;;6.00;2.70;;;;;;;8.55;82.11;94848.22;5070693;28;20215;-61
2022/09/24 03:20:00;;;;;;;5.43;2.80;;;;;;;8.45;82.24;94836.25;5070575;28;20808;-62
2022/09/24 03:22:25;;;;;;;3.83;2.53;;;;;;;8.55;82.45;94843.16;5052310;28;20193;-61
2022/09/24 03:24:50;;;;;;;3.80;2.90;;;;;;;8.55;81.82;94836.38;5070478;28;20262;-62
2022/09/24 03:27:16;;;;;;;2.70;2.50;;;;;;;8.52;83.00;94830.75;5070476;28;20272;-61
2022/09/24 03:32:25;;;;;;;3.17;2.87;;;;;;;8.44;84.42;94806.78;5070303;28;20276;-62
2022/09/24 03:34:51;;;;;;;3.97;3.03;;;;;;;8.32;86.05;94791.69;5070196;28;20232;-61
2022/09/24 03:37:16;;;;;;;3.83;3.20;;;;;;;8.39;84.51;94806.31;5070382;28;20203;-60
2022/09/24 03:39:42;;;;;;;4.00;3.30;;;;;;;8.37;86.20;94795.50;5052055;28;20597;-60
2022/09/24 03:42:07;;;;;;;3.60;3.30;;;;;;;8.60;85.07;94828.44;5070153;28;20242;-62
2022/09/24 03:44:32;;;;;;;3.47;3.17;;;;;;;8.57;84.74;94833.72;5071216;28;20582;-62
2022/09/24 03:46:58;;;;;;;3.83;3.33;;;;;;;8.84;83.03;94864.63;5073685;28;20196;-61
2022/09/24 03:49:24;;;;;;;5.20;3.77;;;;;;;8.64;83.98;94840.78;5055412;28;20299;-61
2022/09/24 03:51:50;;;;;;;3.97;3.27;;;;;;;8.31;86.16;94798.47;5073407;28;20218;-62
2022/09/24 03:54:15;;;;;;;5.33;3.70;;;;;;;8.54;85.26;94826.38;5082167;22;20598;-61
2022/09/24 03:56:41;;;;;;;7.33;4.07;;;;;;;8.43;85.32;94829.69;5093017;28;20654;-61
2022/09/24 03:59:09;;;;;;;8.07;4.63;;;;;;;8.20;86.79;94813.59;5093520;28;20223;-62
2022/09/24 04:01:36;;;;;;;5.57;3.70;;;;;;;8.06;86.29;94821.41;5093766;28;20275;-62
2022/09/24 04:04:02;;;;;;;4.90;3.20;;;;;;;7.91;86.76;94807.31;5093710;28;20216;-64
2022/09/24 04:06:27;;;;;;;6.87;3.67;;;;;;;7.82;88.30;94792.78;5093561;28;20260;-61
2022/09/24 04:08:53;;;;;;;6.53;3.30;;;;;;;7.98;87.37;94813.53;5093379;28;20215;-61
2022/09/24 04:11:25;;;;;;;6.50;3.50;;;;;;;8.23;86.10;94846.31;5075223;28;20183;-62
2022/09/24 04:13:51;;;;;;;5.93;3.00;;;;;;;8.20;86.18;94835.59;5093310;28;20215;-61
2022/09/24 04:16:17;;;;;;;3.80;3.07;;;;;;;8.06;87.50;94815.53;5093522;28;20187;-62
2022/09/24 04:18:42;;;;;;;5.83;3.40;;;;;;;7.99;88.28;94815.19;5093358;28;20200;-62
2022/09/24 04:21:08;;;;;;;5.33;3.17;;;;;;;8.04;87.90;94814.84;5093438;28;20318;-63
2022/09/24 04:23:33;;;;;;;6.10;3.10;;;;;;;8.20;87.01;94844.00;5093188;28;20194;-61
2022/09/24 04:26:01;;;;;;;8.17;3.57;;;;;;;8.28;86.38;94853.63;5093860;28;20542;-60
2022/09/24 04:28:27;;;;;;;4.30;3.07;;;;;;;8.29;86.47;94850.97;5092932;28;20303;-62
2022/09/24 04:30:53;;;;;;;5.10;3.27;;;;;;;8.23;86.32;94851.38;5093400;28;20584;-61
2022/09/24 04:33:25;;;;;;;5.67;3.47;;;;;;;8.27;86.28;94857.88;5093069;28;20642;-63
2022/09/24 04:35:51;;;;;;;5.70;3.57;;;;;;;8.00;85.41;94867.41;5103266;22;20311;-62
2022/09/24 04:38:18;;;;;;;5.57;3.33;;;;;;;8.06;85.67;94866.97;5093200;28;20231;-62
2022/09/24 04:40:46;;;;;;;5.60;3.07;;;;;;;8.26;84.70;94884.09;5072776;28;20180;-60
2022/09/24 04:43:11;;;;;;;3.77;3.30;;;;;;;8.15;85.88;94871.38;5072588;28;20243;-62
2022/09/24 04:45:37;;;;;;;5.97;3.40;;;;;;;8.01;86.39;94863.97;5072648;28;20283;-60
2022/09/24 04:48:02;;;;;;;4.10;3.07;;;;;;;8.10;86.72;94865.81;5072620;28;20243;-62
2022/09/24 04:50:32;;;;;;;4.73;3.60;;;;;;;8.18;84.85;94888.88;5072592;28;20204;-62
2022/09/24 04:52:57;;;;;;;3.53;2.97;;;;;;;8.19;84.23;94894.75;5054618;28;20646;-63
2022/09/24 04:55:24;;;;;;;6.40;3.20;;;;;;;8.33;83.57;94899.66;5054589;28;20745;-63
2022/09/24 04:57:50;;;;;;;5.60;3.30;;;;;;;8.34;85.90;94876.75;5072507;28;20185;-61
2022/09/24 05:00:18;;;;;;;3.77;2.83;;;;;;;8.13;81.57;94938.22;5054541;28;20291;-62
2022/09/24 05:02:44;;;;;;;5.73;4.57;;;;;;;7.94;82.97;94921.00;5054406;28;20185;-62
2022/09/24 05:05:11;;;;;;;7.53;5.10;;;;;;;7.81;83.74;94909.31;5054290;28;20215;-62
2022/09/24 05:07:37;;;;;;;2.73;2.53;;;;;;;7.71;84.40;94888.91;5072229;28;20204;-62
2022/09/24 05:10:03;;;;;;;2.93;2.40;;;;;;;7.68;85.52;94878.16;5072398;28;20209;-61
2022/09/24 05:12:28;;;;;;;3.53;3.03;;;;;;;7.77;86.17;94875.81;5072321;28;20229;-63
2022/09/24 05:14:53;;;;;;;4.20;2.97;;;;;;;7.90;85.83;94879.09;5072539;28;20216;-62
2022/09/24 05:17:19;;;;;;;4.70;3.13;;;;;;;7.90;86.02;94874.03;5072140;28;20185;-61
2022/09/24 05:19:44;;;;;;;3.73;2.90;;;;;;;7.97;84.35;94892.13;5072241;28;20301;-60
2022/09/24 05:22:10;;;;;;;4.83;3.00;;;;;;;7.86;86.70;94849.84;5072145;28;20185;-60
2022/09/24 05:24:35;;;;;;;4.30;3.37;;;;;;;8.02;86.45;94873.16;5072154;28;20201;-60
2022/09/24 05:27:10;;;;;;;4.27;3.10;;;;;;;8.03;84.78;94887.44;5072209;28;20673;-61
2022/09/24 05:29:41;;;;;;;6.00;2.93;;;;;;;7.89;85.86;94882.56;5072061;28;20211;-60
2022/09/24 05:32:09;;;;;;;3.23;2.67;;;;;;;7.80;87.60;94859.63;5054013;28;20189;-60
2022/09/24 05:34:35;;;;;;;4.03;2.90;;;;;;;7.85;87.64;94858.38;5072486;28;20236;-62
2022/09/24 05:37:01;;;;;;;3.50;2.57;;;;;;;7.87;87.60;94859.06;5089355;22;20562;-62
2022/09/24 05:39:27;;;;;;;3.97;2.97;;;;;;;8.19;86.10;94885.44;5092381;28;20208;-61
2022/09/24 05:41:53;;;;;;;5.57;2.87;;;;;;;8.18;87.86;94868.63;5092302;28;20696;-60
2022/09/24 05:44:20;;;;;;;3.60;2.93;;;;;;;8.35;86.96;94880.91;5092155;28;20215;-61
2022/09/24 05:46:47;;;;;;;3.33;2.60;;;;;;;8.32;87.53;94886.19;5092340;28;20188;-61
2022/09/24 05:49:12;;;;;;;3.00;2.70;;;;;;;8.35;88.20;94873.31;5091762;28;20227;-61
2022/09/24 05:51:38;;;;;;;4.70;2.93;;;;;;;8.42;87.63;94883.81;5092140;28;20188;-61
2022/09/24 05:54:04;;;;;;;3.80;2.43;;;;;;;8.64;87.41;94896.53;5073888;28;20240;-62
2022/09/24 05:56:29;;;;;;;2.87;2.30;;;;;;;8.53;86.73;94900.75;5091713;28;20199;-62
2022/09/24 05:58:54;;;;;;;5.83;3.03;;;;;;;8.34;87.85;94874.22;5091887;28;20204;-62
2022/09/24 06:01:20;;;;;;;7.30;3.57;;;;;;;8.28;89.24;94864.53;5091950;28;20192;-61
2022/09/24 06:03:45;;;;;;;2.90;2.57;;;;;;;8.61;88.63;94883.25;5091839;28;20677;-62
2022/09/24 06:06:11;;;;;;;5.60;2.93;;;;;;;8.51;89.33;94880.59;5091718;28;20672;-62
2022/09/24 06:08:36;;;;;;;4.90;3.33;;;;;;;8.51;87.50;94902.59;5090903;28;20237;-62
2022/09/24 06:11:05;;;;;;;5.13;2.83;;;;;;;8.44;87.54;94900.50;5073470;28;20188;-62
2022/09/24 06:13:33;;;;;;;5.40;3.77;;;;;;;8.31;89.61;94873.63;5091525;28;20226;-62
2022/09/24 06:16:11;;;;;;;3.57;3.07;;;;;;;8.37;89.72;94871.47;5073394;28;20188;-61
2022/09/24 06:18:38;;;;;;;3.07;2.80;;;;;;;8.58;88.70;94889.38;5091515;28;20355;-61
2022/09/24 06:21:13;;;;;;;5.00;4.13;;;;;;;8.79;88.68;94897.94;5073240;28;20188;-63
2022/09/24 06:23:39;;;;;;;3.93;3.53;;;;;;;8.89;88.67;94903.13;5091455;28;20219;-62
2022/09/24 06:26:09;;;;;;;6.13;4.40;;;;;;;8.87;88.16;94905.78;5091259;28;20187;-62
2022/09/24 06:28:36;;;;;;;4.17;3.77;;;;;;;9.06;87.71;94917.91;5091119;28;20223;-62
2022/09/24 06:31:02;;;;;;;5.17;4.57;;;;;;;9.16;87.22;94926.44;5072936;28;20188;-62
2022/09/24 06:33:29;;;;;;;6.57;4.10;;;;;;;9.11;87.62;94905.69;5091310;28;20673;-62
2022/09/24 06:35:58;;;;;;;7.53;5.00;;;;;;;9.21;87.87;94909.94;5073025;28;20191;-61
2022/09/24 06:38:24;;;;;;;6.40;4.80;;;;;;;9.42;87.15;94927.81;5091007;28;20279;-61
2022/09/24 06:40:49;;;;;;;11.17;6.23;;;;;;;9.17;89.38;94892.56;5091192;28;20275;-61
2022/09/24 06:43:16;;;;;;;6.43;4.73;;;;;;;9.63;86.37;94943.97;5073076;28;20188;-60
2022/09/24 06:45:43;;;;;;;10.03;5.60;;;;;;;9.71;86.04;94956.88;5090934;28;20176;-61
2022/09/24 06:48:11;;;;;;;9.07;5.17;;;;;;;9.82;85.59;94964.47;5090846;28;20618;-62
2022/09/24 06:50:40;;;;;;;8.93;5.07;;;;;;;9.79;86.91;94939.31;5090903;28;20196;-62
2022/09/24 06:53:07;;;;;;;10.07;5.23;;;;;;;10.04;85.05;94971.22;5091455;28;20191;-61
2022/09/24 06:55:34;;;;;;;17.57;8.73;;;;;;;9.66;86.69;94936.09;5090706;28;20208;-61
2022/09/24 06:58:05;;;;;;;9.83;5.90;;;;;;;9.61;87.93;94922.16;5091071;28;20204;-59
2022/09/24 07:00:30;;;;;;;7.40;5.83;;;;;;;9.85;86.63;94943.94;5090888;28;20610;-61
2022/09/24 07:02:56;;;;;;;12.17;5.67;;;;;;;9.91;84.64;94984.09;5090674;28;20238;-61
2022/09/24 07:05:21;;;;;;;8.57;5.70;;;;;;;10.09;83.47;95004.72;5072616;28;20208;-63
2022/09/24 07:07:47;;;;;;;7.23;5.30;;;;;;;10.08;82.57;95005.63;5090604;28;20223;-63
2022/09/24 07:10:12;;;;;;;8.13;5.43;;;;;;;10.12;84.24;94982.44;5090709;28;20280;-62
2022/09/24 07:12:40;;;;;;;7.93;5.30;;;;;;;9.64;85.69;94958.25;5091044;28;20257;-61
2022/09/24 07:15:07;;;;;;;12.80;7.20;;;;;;;9.65;85.12;94970.03;5090747;28;20203;-62
2022/09/24 07:17:33;;;;;;;15.37;6.90;;;;;;;10.13;83.33;94993.41;5091237;28;20188;-60
2022/09/24 07:19:59;;;;;;;10.37;5.77;;;;;;;10.16;82.09;95016.03;5074221;28;20211;-62
2022/09/24 07:22:25;;;;;;;7.87;5.07;;;;;;;10.22;82.21;95014.75;5094242;28;20540;-59
2022/09/24 07:24:51;;;;;;;6.80;5.63;;;;;;;10.28;83.10;94997.28;5075880;28;20216;-62
2022/09/24 07:27:16;;;;;;;6.50;5.00;;;;;;;10.43;82.60;95001.19;5075825;28;20227;-62
2022/09/24 07:29:42;;;;;;;8.10;5.03;;;;;;;10.53;82.65;95003.81;5094005;28;20277;-62
2022/09/24 07:32:07;;;;;;;8.30;5.37;;;;;;;10.66;82.53;95001.91;5093957;28;20270;-63
2022/09/24 07:34:34;;;;;;;8.10;5.07;;;;;;;10.87;80.86;95034.06;5094008;28;20693;-63
2022/09/24 07:36:59;;;;;;;6.37;4.57;;;;;;;11.02;78.83;95066.84;5093766;28;20204;-61
2022/09/24 07:39:26;;;;;;;6.57;4.40;;;;;;;10.96;77.87;95089.31;5075453;28;20296;-64
2022/09/24 07:41:51;;;;;;;8.10;4.70;;;;;;;10.93;78.25;95074.28;5094317;28;20192;-60
2022/09/24 07:44:19;;;;;;;8.00;6.20;;;;;;;10.97;79.08;95044.31;5093838;28;20223;-62
2022/09/24 07:46:54;;;;;;;10.23;5.40;;;;;;;11.12;79.01;95043.09;5093904;28;20614;-62
2022/09/24 07:49:20;;;;;;;13.80;5.63;;;;;;;11.20;79.74;95032.28;5093728;28;20215;-62
2022/09/24 07:51:46;;;;;;;7.60;6.07;;;;;;;11.37;78.80;95049.56;5093795;28;20188;-62
2022/09/24 07:54:11;;;;;;;8.77;3.87;;;;;;;11.50;75.21;95122.25;5075718;28;20269;-63
2022/09/24 07:56:37;;;;;;;5.23;4.50;;;;;;;11.56;75.16;95119.22;5075573;28;20588;-62
2022/09/24 07:59:05;;;;;;;10.17;4.73;;;;;;;11.43;75.92;95094.88;5075428;28;20676;-62
2022/09/24 08:01:31;;;;;;;5.27;3.80;;;;;;;11.59;77.38;95069.78;5093649;28;20196;-63
2022/09/24 08:03:58;;;;;;;7.17;3.53;;;;;;;11.63;73.98;95153.44;5093594;28;20348;-63
2022/09/24 08:06:24;;;;;;;4.90;4.07;;;;;;;11.52;74.34;95120.38;5093451;28;20613;-62
2022/09/24 08:08:51;;;;;;;5.33;3.90;;;;;;;11.64;76.13;95073.56;5093437;28;20302;-60
2022/09/24 08:11:16;;;;;;;6.33;4.10;;;;;;;11.86;76.58;95074.38;5093713;28;20275;-61
2022/09/24 08:13:42;;;;;;;5.47;4.53;;;;;;;12.17;73.90;95139.69;5093224;28;20208;-62
2022/09/24 08:16:08;;;;;;;8.53;4.80;;;;;;;12.24;73.84;95130.59;5093256;28;20216;-64
2022/09/24 08:18:33;;;;;;;6.00;3.53;;;;;;;12.36;70.35;95201.75;5075081;28;20182;-64
2022/09/24 08:21:08;;;;;;;7.53;5.37;;;;;;;12.30;71.85;95165.78;5093096;28;20654;-61
2022/09/24 08:23:35;;;;;;;6.37;3.23;;;;;;;12.49;70.88;95181.16;5093291;28;20698;-60
2022/09/24 08:26:01;;;;;;;4.23;3.40;;;;;;;12.60;69.70;95206.56;5093285;28;20172;-63
2022/09/24 08:28:27;;;;;;;5.67;3.50;;;;;;;12.64;69.33;95211.28;5093162;28;20207;-63
2022/09/24 08:30:57;;;;;;;3.53;3.20;;;;;;;12.73;69.01;95207.16;5092871;28;20184;-63
2022/09/24 08:33:23;;;;;;;4.60;3.93;;;;;;;12.82;70.84;95162.19;5075241;28;20184;-64
2022/09/24 08:35:49;;;;;;;5.43;3.47;;;;;;;13.19;70.97;95158.91;5075031;28;20190;-59
2022/09/24 08:38:15;;;;;;;5.67;3.83;;;;;;;13.51;70.89;95165.53;5093096;28;20653;-62
2022/09/24 08:40:51;;;;;;;4.37;3.63;;;;;;;13.89;68.55;95227.66;5093186;28;20287;-62
2022/09/24 08:43:44;;;;;;;4.93;3.93;;;;;;;14.25;67.31;95249.94;5093209;28;20279;-62
2022/09/24 08:49:06;;;;;;;7.30;4.18;;;;;;;14.78;63.51;95321.91;5093078;28;20219;-63
2022/09/24 08:51:42;;;;;;;8.65;3.45;;;;;;;14.93;62.60;95325.63;5093027;28;20571;-63
2022/09/24 08:54:13;;;;;;;4.90;3.65;;;;;;;15.27;60.26;95381.47;5092777;28;20215;-61
2022/09/24 08:56:42;;;;;;;5.38;3.58;;;;;;;15.26;59.49;95382.38;5074903;28;20201;-62
2022/09/24 08:59:29;;;;;;;6.43;4.10;;;;;;;15.31;59.82;95352.03;5092751;28;20283;-63
2022/09/24 09:02:19;;;;;;;6.75;4.68;;;;;;;15.35;58.51;95382.34;5092800;28;20184;-62
2022/09/24 09:05:09;;;;;;;6.57;4.35;;;;;;;15.46;60.71;95313.03;5092735;28;20204;-62
2022/09/24 09:07:46;;;;;;;5.28;4.53;;;;;;;15.15;57.64;95380.81;5093068;28;20673;-62
2022/09/24 09:10:26;;;;;;;5.97;4.27;;;;;;;15.14;58.54;95325.41;5092611;28;20199;-62
2022/09/24 09:13:04;;;;;;;9.77;4.55;;;;;;;15.12;59.49;95310.19;5075435;28;20195;-61
2022/09/24 09:15:34;;;;;;;7.50;4.80;;;;;;;15.22;57.94;95353.69;5074391;28;20610;-61
2022/09/24 09:18:18;;;;;;;5.07;3.97;;;;;;;15.87;57.04;95368.09;5074331;28;20214;-61
2022/09/24 09:20:47;;;;;;;12.30;4.13;;;;;;;16.09;56.80;95369.44;5092521;28;20679;-63
2022/09/24 09:23:34;;;;;;;4.68;3.90;;;;;;;16.07;54.12;95432.91;5092212;28;20283;-63
2022/09/24 09:25:59;;;;;;;11.20;4.10;;;;;;;16.64;53.24;95451.31;5092437;28;20176;-62
2022/09/24 09:28:26;;;;;;;5.50;4.20;;;;;;;16.78;49.40;95557.88;5092348;28;20693;-62
2022/09/24 09:30:51;;;;;;;4.22;3.65;;;;;;;16.66;52.16;95436.56;5092173;28;20188;-63
2022/09/24 09:33:27;;;;;;;8.73;4.13;;;;;;;17.18;50.72;95470.06;5092181;28;20180;-62
2022/09/24 09:36:26;;;;;;;4.20;3.80;;;;;;;17.49;51.64;95430.91;5092144;28;20248;-64
2022/09/24 09:39:10;;;;;;;6.47;3.80;;;;;;;17.29;49.11;95506.59;5092153;28;20204;-65
2022/09/24 09:41:48;;;;;;;8.00;3.75;;;;;;;16.57;50.19;95446.91;5091467;28;20187;-63
2022/09/24 09:44:21;;;;;;;9.38;4.20;;;;;;;16.83;49.60;95457.28;5092227;28;20246;-63
2022/09/24 09:46:54;;;;;;;8.27;4.10;;;;;;;17.12;49.70;95440.63;5091978;28;20196;-63
2022/09/24 09:49:21;;;;;;;5.25;4.00;;;;;;;17.80;50.11;95420.94;5091865;28;20253;-64
2022/09/24 09:51:48;;;;;;;7.97;3.90;;;;;;;18.50;49.87;95421.50;5092154;28;20574;-61
2022/09/24 09:54:14;;;;;;;5.40;3.67;;;;;;;19.09;49.98;95418.59;5091870;28;20207;-60
2022/09/24 09:56:48;;;;;;;5.18;3.72;;;;;;;19.43;47.40;95442.44;5091974;28;20271;-62
2022/09/24 09:59:18;;;;;;;6.80;5.47;;;;;;;19.38;45.10;95464.53;5092273;28;20204;-64
2022/09/24 10:01:46;;;;;;;8.57;4.63;;;;;;;19.86;46.89;95398.09;5092517;28;20696;-59
2022/09/24 10:04:38;;;;;;;5.60;3.50;;;;;;;20.44;49.19;95316.78;5091653;28;20773;-60
2022/09/24 10:07:14;;;;;;;8.75;4.18;;;;;;;20.69;46.61;95383.59;5092072;28;20229;-63
2022/09/24 10:09:41;;;;;;;5.72;4.07;;;;;;;20.56;43.39;95463.44;5073635;28;20207;-64
2022/09/24 10:12:07;;;;;;;9.88;3.88;;;;;;;19.75;47.79;95290.13;5091783;28;20196;-64
2022/09/24 10:14:34;;;;;;;6.15;4.30;;;;;;;19.66;44.32;95381.41;5091657;28;20196;-62
2022/09/24 10:17:04;;;;;;;5.70;4.65;;;;;;;20.22;43.81;95395.84;5091714;28;20191;-63
2022/09/24 10:19:32;;;;;;;6.03;5.00;;;;;;;20.34;43.11;95414.38;5091465;28;20204;-63
2022/09/24 10:22:08;;;;;;;6.15;4.60;;;;;;;19.51;42.72;95408.91;5091653;28;20204;-64
2022/09/24 10:24:36;;;;;;;8.43;4.70;;;;;;;19.54;42.45;95420.63;5091552;28;20204;-63
2022/09/24 10:27:10;;;;;;;6.10;4.82;;;;;;;19.76;42.13;95415.56;5091339;28;20281;-64
2022/09/24 10:32:22;;;;;;;5.40;4.45;;;;;;;19.76;41.50;95420.72;5091394;28;20330;-65
2022/09/24 10:35:00;;;;;;;5.45;4.13;;;;;;;19.15;42.58;95371.53;5091219;28;20284;-63
2022/09/24 10:37:27;;;;;;;5.90;3.92;;;;;;;18.78;42.25;95377.25;5091735;28;20193;-64
2022/09/24 10:40:01;;;;;;;5.20;3.60;;;;;;;19.40;43.03;95359.41;5072860;28;20208;-64
2022/09/24 10:42:28;;;;;;;6.85;4.18;;;;;;;19.97;42.37;95371.94;5072750;28;20196;-64
2022/09/24 10:44:59;;;;;;;6.53;4.13;;;;;;;20.38;41.68;95387.22;5091114;28;20258;-64
2022/09/24 10:47:49;;;;;;;5.68;3.80;;;;;;;20.17;41.90;95377.47;5056862;28;20211;-67
2022/09/24 10:50:43;;;;;;;5.65;4.65;;;;;;;20.45;40.69;95414.78;5053067;28;20236;-65
2022/09/24 10:53:14;;;;;;;5.93;3.78;;;;;;;20.46;39.72;95438.84;5072618;28;20184;-67
2022/09/24 10:56:02;;;;;;;4.05;3.65;;;;;;;20.69;41.33;95381.00;5090842;28;20203;-62
2022/09/24 10:58:47;;;;;;;6.55;4.05;;;;;;;20.73;39.17;95441.72;5091072;28;20180;-66
2022/09/24 11:01:25;;;;;;;5.65;3.83;;;;;;;21.16;41.51;95361.88;5090755;28;20188;-67
2022/09/24 11:04:05;;;;;;;8.18;3.80;;;;;;;21.46;41.03;95381.59;5090903;28;20199;-62
2022/09/24 11:09:10;;;;;;;3.63;3.30;;;;;;;21.74;39.34;95424.00;5097899;22;20713;-64
2022/09/24 11:11:39;;;;;;;4.55;3.40;;;;;;;22.15;39.30;95426.94;5090915;28;20216;-67
2022/09/24 11:14:14;;;;;;;5.22;3.70;;;;;;;21.73;37.11;95511.19;5090611;28;20295;-64
2022/09/24 11:17:15;;;;;;;9.70;2.90;;;;;;;22.06;37.43;95479.84;5090793;28;20222;-63
2022/09/24 11:22:44;;;;;;;4.22;2.50;;;;;;;21.76;34.30;95515.22;5097809;22;20232;-63
2022/09/24 11:25:59;;;;;;;7.30;1.90;;;;;;;21.80;32.26;95583.00;5090412;28;20268;-64
2022/09/24 11:29:03;;;;;;;2.85;2.00;;;;;;;21.85;32.30;95573.78;5008739;28;20696;-62
2022/09/24 11:32:07;;;;;;;4.22;1.70;;;;;;;20.91;31.28;95578.44;4972807;28;20680;-63
2022/09/24 11:34:54;;;;;;;6.80;2.15;;;;;;;21.37;33.43;95458.50;5090648;28;20286;-61
2022/09/24 11:37:52;;;;;;;2.75;2.22;;;;;;;21.70;32.17;95516.75;5090339;28;20192;-62
2022/09/24 11:40:23;;;;;;;3.83;1.30;;;;;;;21.82;31.26;95543.03;5090153;28;20212;-60
2022/09/24 11:43:32;;;;;;;2.50;2.03;;;;;;;21.40;30.54;95566.84;5090261;28;20690;-61
2022/09/24 11:46:17;;;;;;;1.95;1.83;;;;;;;20.88;30.75;95542.59;5035867;28;20309;-62
2022/09/24 11:49:23;;;;;;;2.70;2.25;;;;;;;21.44;31.99;95469.78;5090017;28;20204;-62
2022/09/24 11:52:19;;;;;;;3.05;2.00;;;;;;;21.32;31.04;95502.22;5090648;28;20223;-60
2022/09/24 11:54:57;;;;;;;2.35;2.13;;;;;;;21.66;31.27;95492.19;5072496;28;20373;-60
2022/09/24 11:57:29;;;;;;;1.90;1.80;;;;;;;22.12;30.71;95503.22;5090171;28;20223;-60
2022/09/24 12:00:05;;;;;;;3.63;2.05;;;;;;;22.56;30.73;95500.59;5071785;28;20223;-60
2022/09/24 12:02:42;;;;;;;5.07;1.83;;;;;;;22.95;30.43;95495.81;5090086;28;20360;-61
2022/09/24 12:05:18;;;;;;;2.53;1.80;;;;;;;22.11;29.06;95555.22;5090319;28;20227;-61
2022/09/24 12:07:46;;;;;;;3.17;1.50;;;;;;;22.40;28.95;95537.84;5093523;28;20200;-60
2022/09/24 12:10:28;;;;;;;1.58;1.48;;;;;;;22.43;29.24;95516.78;5093447;28;20353;-60
2022/09/24 12:13:03;;;;;;;5.32;1.90;;;;;;;22.21;29.18;95502.16;5093398;28;20180;-62
2022/09/24 12:15:40;;;;;;;1.77;1.60;;;;;;;22.31;29.16;95509.63;5075056;28;20656;-63